Time;durP1;ratioP1;P1;durP2;ratioP2;P2;SDS_P1;SDS_P2;PMS_P1;PMS_P2;Temp;Humidity;BMP_temperature;BMP_pressure;BME280_temperature;BME280_humidity;BME280_pressure;Samples;Min_cycle;Max_cycle;Signal;HPM_P1;HPM_P2
2021/09/14 00:02:05;;;;;;;11.43;7.50;;;18.80;99.90;;;;;;5035978;28;20497;-81
2021/09/14 00:04:32;;;;;;;7.87;6.93;;;18.80;99.90;;;;;;5022197;28;20984;-81
2021/09/14 00:06:59;;;;;;;10.33;6.93;;;18.80;99.90;;;;;;5015496;28;20477;-82
2021/09/14 00:09:26;;;;;;;9.00;7.03;;;18.80;99.90;;;;;;5014470;28;20468;-82
2021/09/14 00:11:54;;;;;;;11.57;8.20;;;18.80;99.90;;;;;;5015386;28;20468;-81
2021/09/14 00:14:20;;;;;;;9.53;8.53;;;18.90;99.90;;;;;;5014619;28;20454;-81
2021/09/14 00:16:47;;;;;;;11.57;8.70;;;18.80;99.90;;;;;;5025238;28;20493;-82
2021/09/14 00:19:15;;;;;;;10.63;8.20;;;18.60;99.90;;;;;;5021519;28;20449;-83
2021/09/14 00:21:41;;;;;;;14.10;9.50;;;18.60;99.90;;;;;;5021773;28;20517;-82
2021/09/14 00:24:08;;;;;;;14.67;9.57;;;18.50;99.90;;;;;;5015244;28;20548;-82
2021/09/14 00:26:35;;;;;;;13.77;9.17;;;18.50;99.90;;;;;;5027938;28;20775;-82
2021/09/14 00:29:04;;;;;;;10.73;8.00;;;18.60;99.90;;;;;;5023552;28;20462;-81
2021/09/14 00:31:32;;;;;;;12.00;8.60;;;18.70;99.90;;;;;;5022547;28;20454;-82
2021/09/14 00:33:59;;;;;;;10.37;8.07;;;18.70;99.90;;;;;;5017317;28;20460;-81
2021/09/14 00:36:26;;;;;;;8.53;7.20;;;18.70;99.90;;;;;;5019576;28;20486;-81
2021/09/14 00:38:53;;;;;;;11.40;7.83;;;18.60;99.90;;;;;;5017800;28;20472;-81
2021/09/14 00:41:19;;;;;;;10.00;7.60;;;18.60;99.90;;;;;;5021939;28;20467;-81
2021/09/14 00:43:55;;;;;;;8.27;7.27;;;18.50;99.90;;;;;;5018384;28;20453;-81
2021/09/14 00:46:24;;;;;;;9.87;7.43;;;18.50;99.90;;;;;;5021756;28;20472;-82
2021/09/14 00:48:50;;;;;;;8.20;6.50;;;18.50;99.90;;;;;;5017670;28;20560;-81
2021/09/14 00:51:17;;;;;;;8.40;7.20;;;18.50;99.90;;;;;;5021640;28;20475;-81
2021/09/14 00:53:47;;;;;;;8.37;7.47;;;18.60;99.90;;;;;;5016372;28;20469;-81
2021/09/14 00:56:14;;;;;;;9.63;7.90;;;18.50;99.90;;;;;;5017099;28;20496;-81
2021/09/14 00:58:41;;;;;;;8.37;6.70;;;18.50;99.90;;;;;;5017100;28;20924;-81
2021/09/14 01:01:08;;;;;;;8.37;7.13;;;18.50;99.90;;;;;;5027501;28;20448;-81
2021/09/14 01:03:36;;;;;;;8.00;6.93;;;18.50;99.90;;;;;;5017328;28;20461;-81
2021/09/14 01:06:04;;;;;;;9.10;7.30;;;18.50;99.90;;;;;;5022886;28;20540;-81
2021/09/14 01:08:31;;;;;;;7.83;6.87;;;18.40;99.90;;;;;;5035946;28;20489;-80
2021/09/14 01:10:59;;;;;;;8.70;6.97;;;18.40;99.90;;;;;;5029694;28;20532;-82
2021/09/14 01:13:26;;;;;;;9.13;7.17;;;18.40;99.90;;;;;;5018849;28;20475;-81
2021/09/14 01:15:52;;;;;;;8.33;6.50;;;18.50;99.90;;;;;;5018463;28;20561;-82
2021/09/14 01:18:19;;;;;;;8.73;6.53;;;18.40;99.90;;;;;;5018074;28;20469;-81
2021/09/14 01:20:47;;;;;;;9.43;7.53;;;18.50;99.90;;;;;;5024095;28;20471;-81
2021/09/14 01:23:16;;;;;;;7.67;6.70;;;18.50;99.90;;;;;;5039724;28;20459;-81
2021/09/14 01:25:42;;;;;;;8.03;6.70;;;18.50;99.90;;;;;;5026414;28;20465;-81
2021/09/14 01:28:09;;;;;;;10.27;7.40;;;18.40;99.90;;;;;;5015813;28;20493;-82
2021/09/14 01:30:36;;;;;;;10.80;8.10;;;18.50;99.90;;;;;;5020872;28;20475;-81
2021/09/14 01:33:03;;;;;;;9.87;6.40;;;18.50;99.90;;;;;;5016867;28;20517;-81
2021/09/14 01:35:31;;;;;;;11.63;7.47;;;18.40;99.90;;;;;;5027016;28;20468;-81
2021/09/14 01:37:59;;;;;;;9.80;8.17;;;18.40;99.90;;;;;;5016646;28;20447;-81
2021/09/14 01:40:27;;;;;;;8.83;7.30;;;18.40;99.90;;;;;;5020414;28;20771;-81
2021/09/14 01:42:54;;;;;;;12.27;8.30;;;18.30;99.90;;;;;;5037501;28;20488;-81
2021/09/14 01:45:22;;;;;;;13.80;9.13;;;18.30;99.90;;;;;;5027314;28;20782;-82
2021/09/14 01:47:49;;;;;;;11.23;7.93;;;18.30;99.90;;;;;;5033469;28;20480;-81
2021/09/14 01:50:16;;;;;;;11.90;7.63;;;18.20;99.90;;;;;;5030313;28;20458;-82
2021/09/14 01:52:44;;;;;;;14.03;9.07;;;18.20;99.90;;;;;;5036588;28;20487;-81
2021/09/14 01:55:13;;;;;;;11.80;7.93;;;18.20;99.90;;;;;;5023665;28;20550;-81
2021/09/14 01:57:42;;;;;;;12.30;8.00;;;18.20;99.90;;;;;;5016658;28;20507;-82
2021/09/14 02:00:16;;;;;;;12.13;8.67;;;18.20;99.90;;;;;;5016516;28;20480;-82
2021/09/14 02:02:58;;;;;;;19.40;7.90;;;18.30;99.90;;;;;;5016333;28;20908;-81
2021/09/14 02:05:40;;;;;;;10.07;8.23;;;18.30;99.90;;;;;;5027531;28;20511;-81
2021/09/14 02:33:45;;;;;;;10.50;7.43;;;17.90;99.90;;;;;;5033290;28;20517;-81
2021/09/14 02:38:50;;;;;;;10.13;7.73;;;17.80;99.90;;;;;;5035927;28;20468;-81
2021/09/14 02:44:16;;;;;;;9.73;7.43;;;17.70;99.90;;;;;;5034987;28;20459;-80
2021/09/14 03:00:22;;;;;;;7.90;6.57;;;17.80;99.90;;;;;;5102473;28;20437;-82
2021/09/14 03:02:50;;;;;;;8.63;7.00;;;17.70;99.90;;;;;;5099447;28;20423;-80
2021/09/14 03:05:17;;;;;;;10.60;7.30;;;17.80;99.90;;;;;;5087302;28;20479;-82
2021/09/14 03:07:44;;;;;;;9.80;7.03;;;17.80;99.90;;;;;;5085952;28;20479;-80
2021/09/14 03:10:11;;;;;;;7.03;6.30;;;17.80;99.90;;;;;;5072597;28;20534;-81
2021/09/14 03:12:38;;;;;;;7.70;6.87;;;17.80;99.90;;;;;;5064844;28;20470;-81
2021/09/14 03:15:06;;;;;;;10.00;6.83;;;17.80;99.90;;;;;;5073565;28;20480;-81
2021/09/14 03:17:33;;;;;;;8.97;7.57;;;17.80;99.90;;;;;;5073264;28;20493;-81
2021/09/14 03:20:01;;;;;;;8.53;7.27;;;17.90;99.90;;;;;;5062378;28;20457;-79
2021/09/14 03:22:28;;;;;;;10.97;7.37;;;17.90;99.90;;;;;;5064664;28;20529;-81
2021/09/14 03:24:54;;;;;;;8.90;7.57;;;17.80;99.90;;;;;;5063297;28;20534;-81
2021/09/14 03:27:21;;;;;;;8.23;6.97;;;17.80;99.90;;;;;;5074293;28;20454;-81
2021/09/14 03:29:48;;;;;;;8.00;6.30;;;17.90;99.90;;;;;;5083747;28;20521;-81
2021/09/14 03:32:15;;;;;;;9.30;6.67;;;17.90;99.90;;;;;;5075655;28;20546;-81
2021/09/14 03:34:42;;;;;;;8.00;6.97;;;17.90;99.90;;;;;;5047396;28;20542;-81
2021/09/14 03:37:11;;;;;;;8.70;7.00;;;17.90;99.90;;;;;;5052920;28;20513;-81
2021/09/14 03:39:37;;;;;;;11.60;7.33;;;17.90;99.90;;;;;;5063601;28;20558;-81
2021/09/14 03:42:05;;;;;;;9.40;6.90;;;17.90;99.90;;;;;;5063810;28;20572;-81
2021/09/14 03:44:31;;;;;;;14.37;6.93;;;17.90;99.90;;;;;;5067058;28;20460;-81
2021/09/14 03:46:58;;;;;;;9.00;7.20;;;17.90;99.90;;;;;;5064237;28;20519;-81
2021/09/14 03:49:25;;;;;;;12.93;7.70;;;17.90;99.90;;;;;;5062423;28;20561;-80
2021/09/14 03:51:52;;;;;;;8.20;6.90;;;17.90;99.90;;;;;;5062258;28;20559;-80
2021/09/14 03:54:20;;;;;;;11.10;7.37;;;17.90;99.90;;;;;;5064762;28;20471;-80
2021/09/14 03:56:46;;;;;;;8.20;7.27;;;17.90;99.90;;;;;;5062694;28;20483;-82
2021/09/14 03:59:13;;;;;;;8.17;7.30;;;17.80;99.90;;;;;;5062077;28;21054;-82
2021/09/14 04:01:43;;;;;;;14.57;7.77;;;17.80;99.90;;;;;;5064885;28;20467;-81
2021/09/14 04:04:15;;;;;;;9.57;7.40;;;17.90;99.90;;;;;;5071068;28;20455;-81
2021/09/14 04:06:54;;;;;;;8.73;7.83;;;17.90;99.90;;;;;;5066158;28;20432;-82
2021/09/14 04:09:23;;;;;;;8.60;7.23;;;17.90;99.90;;;;;;5062538;28;20518;-82
2021/09/14 04:11:50;;;;;;;9.93;7.70;;;17.90;99.90;;;;;;5079861;28;20987;-83
2021/09/14 04:14:18;;;;;;;9.23;8.23;;;17.80;99.90;;;;;;5075279;28;20481;-80
2021/09/14 04:16:45;;;;;;;9.03;7.90;;;17.80;99.90;;;;;;5072309;28;20482;-81
2021/09/14 04:19:12;;;;;;;8.33;7.43;;;17.80;99.90;;;;;;5071009;28;20534;-82
2021/09/14 04:21:38;;;;;;;8.60;7.70;;;17.80;99.90;;;;;;5067984;28;20834;-81
2021/09/14 04:24:06;;;;;;;11.17;8.20;;;17.80;99.90;;;;;;5063789;28;20461;-83
2021/09/14 04:26:34;;;;;;;8.77;7.27;;;17.90;99.90;;;;;;5072492;28;20851;-83
2021/09/14 04:29:01;;;;;;;8.80;7.20;;;17.90;99.90;;;;;;5080020;28;20470;-83
2021/09/14 04:31:28;;;;;;;10.20;8.00;;;17.90;99.90;;;;;;5080620;28;20533;-83
2021/09/14 04:33:54;;;;;;;10.27;8.60;;;17.90;99.90;;;;;;5069821;28;20537;-83
2021/09/14 04:36:21;;;;;;;10.03;8.90;;;17.90;99.90;;;;;;5059246;28;20939;-83
2021/09/14 04:38:48;;;;;;;11.10;7.60;;;17.90;99.90;;;;;;5080772;28;20474;-80
2021/09/14 04:41:15;;;;;;;10.53;8.30;;;17.90;99.90;;;;;;5087811;28;20552;-80
2021/09/14 04:43:43;;;;;;;10.13;7.70;;;17.80;99.90;;;;;;5070920;28;20446;-83
2021/09/14 04:46:10;;;;;;;11.53;8.87;;;17.80;99.90;;;;;;5059095;28;20986;-82
2021/09/14 04:48:37;;;;;;;11.17;8.77;;;17.70;99.90;;;;;;5059292;28;20480;-82
2021/09/14 04:51:04;;;;;;;10.73;8.67;;;17.70;99.90;;;;;;5062405;28;20449;-82
2021/09/14 04:53:31;;;;;;;10.63;8.63;;;17.60;99.90;;;;;;5072699;28;20451;-82
2021/09/14 04:55:58;;;;;;;12.57;8.63;;;17.60;99.90;;;;;;5062884;28;20460;-83
2021/09/14 04:58:25;;;;;;;9.87;8.87;;;17.60;99.90;;;;;;5059545;28;20494;-82
2021/09/14 05:00:53;;;;;;;10.90;8.40;;;17.50;99.90;;;;;;5057792;28;20962;-83
2021/09/14 05:03:20;;;;;;;10.53;8.73;;;17.50;99.90;;;;;;5054900;28;20970;-83
2021/09/14 05:05:47;;;;;;;9.80;8.50;;;17.40;99.90;;;;;;5039169;28;20562;-83
2021/09/14 05:08:14;;;;;;;10.40;8.50;;;17.50;99.90;;;;;;5051871;28;20479;-83
2021/09/14 05:10:41;;;;;;;8.57;7.53;;;17.40;99.90;;;;;;5059540;28;20515;-82
2021/09/14 05:13:07;;;;;;;10.20;8.43;;;17.60;99.90;;;;;;5057528;28;20459;-83
2021/09/14 05:15:34;;;;;;;10.17;7.70;;;17.70;99.90;;;;;;5072340;28;20457;-82
2021/09/14 05:18:09;;;;;;;10.50;8.17;;;17.60;99.90;;;;;;5066338;28;20501;-82
2021/09/14 05:20:35;;;;;;;10.53;8.33;;;17.60;99.90;;;;;;5059733;28;20440;-80
2021/09/14 05:23:11;;;;;;;12.53;8.97;;;17.60;99.90;;;;;;5065124;28;20449;-82
2021/09/14 05:25:38;;;;;;;9.90;8.43;;;17.60;99.90;;;;;;5061810;28;20445;-82
2021/09/14 05:28:05;;;;;;;10.10;8.50;;;17.50;99.90;;;;;;5062643;28;20474;-82
2021/09/14 05:30:32;;;;;;;9.50;8.43;;;17.50;99.90;;;;;;5079042;28;20982;-82
2021/09/14 05:32:59;;;;;;;10.20;8.70;;;17.40;99.90;;;;;;5078554;28;20823;-82
2021/09/14 05:35:33;;;;;;;10.77;8.80;;;17.30;99.90;;;;;;5072378;28;20450;-82
2021/09/14 05:38:00;;;;;;;14.40;9.43;;;17.40;99.90;;;;;;5059007;28;20478;-81
2021/09/14 05:40:27;;;;;;;12.20;9.50;;;17.40;99.90;;;;;;5076673;28;20814;-82
2021/09/14 05:42:53;;;;;;;12.37;9.43;;;17.40;99.90;;;;;;5079277;28;20553;-81
2021/09/14 05:45:20;;;;;;;16.30;9.80;;;17.50;99.90;;;;;;5061848;28;20525;-82
2021/09/14 05:47:47;;;;;;;16.00;10.77;;;17.60;99.90;;;;;;5064398;28;20530;-80
2021/09/14 05:50:14;;;;;;;10.27;9.10;;;17.60;99.90;;;;;;5081780;28;20492;-81
2021/09/14 05:52:42;;;;;;;17.57;9.40;;;17.60;99.90;;;;;;5077734;28;20467;-81
2021/09/14 05:55:10;;;;;;;13.43;9.60;;;17.70;99.90;;;;;;5064618;28;20462;-82
2021/09/14 05:57:37;;;;;;;16.60;10.57;;;17.80;99.90;;;;;;5079743;28;21041;-81
2021/09/14 06:00:05;;;;;;;12.53;9.70;;;17.90;99.90;;;;;;5083899;28;20428;-83
2021/09/14 06:02:32;;;;;;;12.83;10.67;;;17.90;99.90;;;;;;5076301;28;20488;-80
2021/09/14 06:04:58;;;;;;;13.23;10.63;;;17.90;99.90;;;;;;5046684;28;20472;-82
2021/09/14 06:07:25;;;;;;;12.53;10.70;;;17.90;99.90;;;;;;5037059;28;20530;-81
2021/09/14 06:09:53;;;;;;;14.23;10.10;;;17.90;99.90;;;;;;5050719;28;20467;-80
2021/09/14 06:12:20;;;;;;;12.77;10.03;;;18.00;99.90;;;;;;5063804;28;20491;-78
2021/09/14 06:14:47;;;;;;;13.70;9.50;;;18.10;99.90;;;;;;5063085;28;20514;-79
2021/09/14 06:17:14;;;;;;;11.53;9.27;;;18.10;99.90;;;;;;5070705;28;20553;-81
2021/09/14 06:19:41;;;;;;;12.00;9.93;;;18.20;99.90;;;;;;5076520;28;20552;-81
2021/09/14 06:22:07;;;;;;;15.90;10.33;;;18.20;99.90;;;;;;5076558;28;20851;-82
2021/09/14 06:24:34;;;;;;;19.77;10.70;;;18.30;99.90;;;;;;5070256;28;20514;-81
2021/09/14 06:27:03;;;;;;;12.73;10.00;;;18.40;99.90;;;;;;5068442;28;20494;-79
2021/09/14 06:29:29;;;;;;;11.03;9.83;;;18.40;99.90;;;;;;5066128;28;20456;-80
2021/09/14 06:31:56;;;;;;;15.27;11.10;;;18.50;99.90;;;;;;5061825;28;20528;-79
2021/09/14 06:34:23;;;;;;;12.13;10.47;;;18.50;99.90;;;;;;5052017;28;20457;-80
2021/09/14 06:36:50;;;;;;;11.20;10.10;;;18.50;99.90;;;;;;5057023;28;20544;-81
2021/09/14 06:39:17;;;;;;;17.33;10.10;;;18.60;99.90;;;;;;5057824;28;20471;-80
2021/09/14 06:41:44;;;;;;;13.20;10.73;;;18.70;99.90;;;;;;5056274;28;20476;-80
2021/09/14 06:44:12;;;;;;;12.57;11.33;;;18.80;99.90;;;;;;5067255;28;20501;-79
2021/09/14 06:46:39;;;;;;;12.27;11.03;;;18.90;99.90;;;;;;5084202;28;20443;-81
2021/09/14 06:49:06;;;;;;;15.40;11.20;;;19.00;99.90;;;;;;5081633;28;20467;-78
2021/09/14 06:51:33;;;;;;;13.00;11.07;;;19.10;99.90;;;;;;5086774;28;20507;-77
2021/09/14 06:53:59;;;;;;;11.70;10.50;;;19.20;99.90;;;;;;5062442;28;20449;-81
2021/09/14 06:56:26;;;;;;;12.03;10.57;;;19.30;99.90;;;;;;5058036;28;20448;-80
2021/09/14 06:58:53;;;;;;;11.73;9.53;;;19.40;99.90;;;;;;5069580;28;20522;-80
2021/09/14 07:01:22;;;;;;;11.40;9.90;;;19.50;99.90;;;;;;5053908;28;20475;-79
2021/09/14 07:03:49;;;;;;;12.03;10.33;;;19.50;99.90;;;;;;5054773;28;20502;-80
2021/09/14 07:06:17;;;;;;;12.03;10.73;;;19.50;99.90;;;;;;5055004;28;20832;-79
2021/09/14 07:08:44;;;;;;;15.60;9.70;;;19.60;99.90;;;;;;5054956;28;20472;-81
2021/09/14 07:11:11;;;;;;;11.70;10.27;;;19.70;99.90;;;;;;5055549;28;20449;-79
2021/09/14 07:13:38;;;;;;;13.00;11.37;;;19.80;99.90;;;;;;5069893;28;20535;-79
2021/09/14 07:16:05;;;;;;;11.77;10.53;;;20.00;99.90;;;;;;5054857;28;20543;-79
2021/09/14 07:18:37;;;;;;;12.33;9.70;;;20.00;99.90;;;;;;5056489;28;20591;-80
2021/09/14 07:21:04;;;;;;;12.00;10.37;;;20.10;99.90;;;;;;5055476;28;20863;-79
2021/09/14 07:23:31;;;;;;;11.17;10.00;;;20.00;99.90;;;;;;5053176;28;20492;-80
2021/09/14 07:25:58;;;;;;;10.27;9.10;;;20.20;99.90;;;;;;5041624;28;20471;-79
2021/09/14 07:28:25;;;;;;;13.47;10.17;;;20.40;99.90;;;;;;5055593;28;20465;-81
2021/09/14 07:30:52;;;;;;;15.23;12.50;;;20.40;99.90;;;;;;5063109;28;20542;-80
2021/09/14 07:33:19;;;;;;;14.47;10.47;;;20.40;99.90;;;;;;5061733;28;20470;-81
2021/09/14 07:35:47;;;;;;;12.13;9.77;;;20.40;99.90;;;;;;5034931;28;20445;-81
2021/09/14 07:38:14;;;;;;;10.90;9.70;;;20.50;99.90;;;;;;5036446;28;20497;-81
2021/09/14 07:40:41;;;;;;;12.60;9.90;;;20.60;99.90;;;;;;5040452;28;20448;-80
2021/09/14 07:43:08;;;;;;;12.33;9.97;;;20.60;99.90;;;;;;5040559;28;20826;-79
2021/09/14 07:45:35;;;;;;;15.80;9.60;;;20.70;99.90;;;;;;5082729;28;20448;-80
2021/09/14 07:48:02;;;;;;;14.67;10.00;;;20.80;99.90;;;;;;5069593;28;20473;-79
2021/09/14 07:50:29;;;;;;;13.37;9.83;;;20.90;99.90;;;;;;5060440;28;20472;-80
2021/09/14 07:52:57;;;;;;;14.03;10.43;;;21.10;99.90;;;;;;5060013;28;20452;-81
2021/09/14 07:55:24;;;;;;;11.43;9.60;;;21.10;99.90;;;;;;5058086;28;20484;-81
2021/09/14 07:57:51;;;;;;;11.13;9.10;;;21.10;99.90;;;;;;5062679;28;20490;-81
2021/09/14 08:00:18;;;;;;;13.20;9.30;;;21.10;99.90;;;;;;5065446;28;20464;-80
2021/09/14 08:02:54;;;;;;;10.40;8.23;;;21.10;99.90;;;;;;5045939;28;20549;-80
2021/09/14 08:05:22;;;;;;;12.43;8.13;;;21.30;99.90;;;;;;5061503;28;20510;-81
2021/09/14 08:07:48;;;;;;;14.07;7.90;;;21.50;99.90;;;;;;5059164;28;20476;-81
2021/09/14 08:10:17;;;;;;;11.20;6.93;;;21.60;99.90;;;;;;5059249;28;20454;-79
2021/09/14 08:12:44;;;;;;;8.17;6.80;;;21.70;99.90;;;;;;5065209;28;20875;-80
2021/09/14 08:15:12;;;;;;;7.40;6.40;;;21.70;99.90;;;;;;5060500;28;20466;-81
2021/09/14 08:17:40;;;;;;;7.20;6.30;;;21.90;99.90;;;;;;5058277;28;20504;-80
2021/09/14 08:20:08;;;;;;;8.63;6.30;;;22.00;99.90;;;;;;5067025;28;20482;-81
2021/09/14 08:22:35;;;;;;;8.87;6.60;;;22.20;99.90;;;;;;5071902;28;20468;-81
2021/09/14 08:25:02;;;;;;;7.57;6.07;;;22.30;99.90;;;;;;5058497;28;20478;-80
2021/09/14 08:27:30;;;;;;;7.47;6.10;;;22.40;99.90;;;;;;5076827;28;20831;-81
2021/09/14 08:29:56;;;;;;;9.50;7.90;;;22.50;99.90;;;;;;5082199;28;20451;-81
2021/09/14 08:32:23;;;;;;;7.60;6.73;;;22.60;99.90;;;;;;5079361;28;20514;-81
2021/09/14 08:34:50;;;;;;;7.00;6.27;;;22.70;99.90;;;;;;5067583;28;20530;-80
2021/09/14 08:37:17;;;;;;;11.20;6.97;;;22.80;99.90;;;;;;5058780;28;20441;-80
2021/09/14 08:39:44;;;;;;;11.10;6.80;;;22.80;99.90;;;;;;5055986;28;20488;-79
2021/09/14 08:42:11;;;;;;;8.57;6.90;;;22.90;99.90;;;;;;5063839;28;20483;-79
2021/09/14 08:44:42;;;;;;;8.50;5.73;;;23.10;99.90;;;;;;5055901;28;20466;-81
2021/09/14 08:47:09;;;;;;;8.97;6.50;;;23.20;99.90;;;;;;5057454;28;20441;-79
2021/09/14 08:49:37;;;;;;;9.70;6.67;;;23.20;99.90;;;;;;5058875;28;20513;-82
2021/09/14 08:52:04;;;;;;;11.47;7.93;;;23.30;99.90;;;;;;5077535;28;20469;-82
2021/09/14 08:54:31;;;;;;;13.40;7.00;;;23.30;99.90;;;;;;5056075;28;20468;-82
2021/09/14 08:56:58;;;;;;;7.83;6.50;;;23.40;99.90;;;;;;5070385;28;20478;-81
2021/09/14 08:59:28;;;;;;;7.90;6.67;;;23.50;99.90;;;;;;5058056;28;20502;-81
2021/09/14 09:02:02;;;;;;;8.07;6.50;;;23.60;99.90;;;;;;5091460;23;20451;-81
2021/09/14 09:04:28;;;;;;;8.17;6.10;;;23.70;99.90;;;;;;5015951;28;20472;-78
2021/09/14 09:06:55;;;;;;;8.90;6.87;;;23.70;99.90;;;;;;5015367;28;20454;-78
2021/09/14 09:09:25;;;;;;;10.70;6.90;;;23.70;99.90;;;;;;5028397;28;20459;-78
2021/09/14 09:11:55;;;;;;;9.30;8.10;;;23.80;99.90;;;;;;5014616;28;20461;-80
2021/09/14 09:14:36;;;;;;;9.60;6.83;;;23.90;99.90;;;;;;5013097;28;20856;-77
2021/09/14 09:17:06;;;;;;;7.37;6.60;;;24.00;99.90;;;;;;4996112;28;20790;-77
2021/09/14 09:19:33;;;;;;;7.00;6.30;;;24.10;99.90;;;;;;4994232;28;20471;-80
2021/09/14 09:22:00;;;;;;;6.90;5.83;;;24.10;99.90;;;;;;4996038;28;20450;-75
2021/09/14 09:24:27;;;;;;;8.77;6.17;;;24.20;99.90;;;;;;5006300;28;20451;-77
2021/09/14 09:26:54;;;;;;;7.90;6.43;;;24.30;99.90;;;;;;4998625;28;20875;-74
2021/09/14 09:29:23;;;;;;;7.10;6.40;;;24.40;99.90;;;;;;5013038;28;20445;-75
2021/09/14 09:31:53;;;;;;;8.93;7.20;;;24.50;99.90;;;;;;5012812;28;20454;-75
2021/09/14 09:34:28;;;;;;;8.33;6.50;;;24.60;99.90;;;;;;5006854;28;20477;-75
2021/09/14 09:37:05;;;;;;;6.67;5.93;;;24.50;99.90;;;;;;4994467;28;20533;-78
2021/09/14 09:39:42;;;;;;;10.13;8.27;;;24.60;99.90;;;;;;4995175;28;20467;-78
2021/09/14 09:42:09;;;;;;;8.60;6.50;;;24.60;99.90;;;;;;5002237;28;20532;-77
2021/09/14 09:44:37;;;;;;;7.50;6.63;;;24.70;99.90;;;;;;5012549;28;20462;-77
2021/09/14 09:47:04;;;;;;;10.40;6.00;;;24.80;99.90;;;;;;5006270;28;20489;-82
2021/09/14 09:49:33;;;;;;;7.87;6.40;;;24.90;99.90;;;;;;4994981;28;20439;-79
2021/09/14 09:52:01;;;;;;;8.00;6.17;;;25.10;99.90;;;;;;4994319;28;20744;-79
2021/09/14 09:54:28;;;;;;;9.87;6.10;;;25.20;99.90;;;;;;4995435;28;20456;-79
2021/09/14 09:56:55;;;;;;;12.13;7.33;;;25.40;99.90;;;;;;4993934;28;20517;-79
2021/09/14 09:59:22;;;;;;;9.33;6.30;;;25.50;99.90;;;;;;4994502;28;20483;-79
2021/09/14 10:02:09;;;;;;;9.33;6.70;;;25.50;99.90;;;;;;5002766;28;20987;-78
2021/09/14 10:04:44;;;;;;;7.37;6.57;;;25.50;99.90;;;;;;5001313;28;20511;-79
2021/09/14 10:07:13;;;;;;;8.00;6.87;;;25.50;99.90;;;;;;5001523;28;20454;-79
2021/09/14 10:09:54;;;;;;;7.87;6.77;;;25.60;99.90;;;;;;4994413;28;20449;-79
2021/09/14 10:12:25;;;;;;;6.93;6.17;;;25.70;99.90;;;;;;5003068;28;20473;-78
2021/09/14 10:15:04;;;;;;;9.27;6.80;;;25.80;99.90;;;;;;4994775;28;20450;-79
2021/09/14 10:17:33;;;;;;;8.23;6.23;;;25.90;99.90;;;;;;4999782;28;20555;-78
2021/09/14 10:20:11;;;;;;;7.60;6.30;;;25.90;99.90;;;;;;5013185;28;20550;-79
2021/09/14 10:22:39;;;;;;;9.23;7.10;;;26.00;99.90;;;;;;5008682;28;20508;-78
2021/09/14 10:25:08;;;;;;;12.00;6.37;;;26.10;99.90;;;;;;4998235;28;20462;-78
2021/09/14 10:27:37;;;;;;;8.00;6.37;;;25.90;99.90;;;;;;5021816;28;20456;-78
2021/09/14 10:30:05;;;;;;;9.50;6.80;;;26.00;99.90;;;;;;5015710;28;20451;-78
2021/09/14 10:32:39;;;;;;;8.40;6.33;;;26.10;99.90;;;;;;5010712;28;20646;-78
2021/09/14 10:35:07;;;;;;;7.20;6.17;;;26.00;99.90;;;;;;4994558;28;20558;-79
2021/09/14 10:37:37;;;;;;;8.77;7.00;;;26.10;99.90;;;;;;4998231;28;20468;-79
2021/09/14 10:40:12;;;;;;;9.47;6.80;;;26.20;99.90;;;;;;5014006;28;20483;-78
2021/09/14 10:42:42;;;;;;;7.63;6.60;;;26.30;99.90;;;;;;5009385;28;20552;-79
2021/09/14 10:45:11;;;;;;;8.10;7.13;;;26.40;99.90;;;;;;4994880;28;20887;-78
2021/09/14 10:47:40;;;;;;;7.70;6.90;;;26.40;99.90;;;;;;4994156;28;20511;-79
2021/09/14 10:50:08;;;;;;;7.80;6.90;;;26.40;99.90;;;;;;4993848;28;20523;-78
2021/09/14 10:52:38;;;;;;;8.40;7.20;;;26.40;99.90;;;;;;4996432;28;20546;-79
2021/09/14 10:55:07;;;;;;;11.63;7.70;;;26.50;99.90;;;;;;5013441;28;20463;-78
2021/09/14 10:57:34;;;;;;;8.27;6.63;;;26.60;99.90;;;;;;5014587;28;20559;-78
2021/09/14 11:00:04;;;;;;;8.03;7.03;;;26.60;99.90;;;;;;5017409;28;20511;-78
2021/09/14 11:02:30;;;;;;;8.10;6.77;;;26.80;99.90;;;;;;5017109;28;21252;-78
2021/09/14 11:04:59;;;;;;;8.60;7.13;;;26.60;99.90;;;;;;5011551;28;20477;-78
2021/09/14 11:07:26;;;;;;;9.63;6.87;;;26.70;99.90;;;;;;4995614;28;20473;-78
2021/09/14 11:09:55;;;;;;;10.90;7.10;;;26.80;99.90;;;;;;4994030;28;20457;-78
2021/09/14 11:12:24;;;;;;;9.87;7.20;;;26.90;99.90;;;;;;4994118;28;20474;-78
2021/09/14 11:14:52;;;;;;;7.67;6.87;;;26.90;99.90;;;;;;5011311;28;20449;-79
2021/09/14 11:17:27;;;;;;;11.00;8.23;;;27.00;99.90;;;;;;5012719;28;20456;-78
2021/09/14 11:19:54;;;;;;;9.53;7.17;;;27.20;99.90;;;;;;5013187;28;20854;-78
2021/09/14 11:22:36;;;;;;;7.73;6.70;;;27.20;99.90;;;;;;5012841;28;21001;-78
2021/09/14 11:25:05;;;;;;;9.40;6.80;;;27.30;99.90;;;;;;5012647;28;20456;-78
2021/09/14 11:27:32;;;;;;;7.37;6.53;;;27.30;99.90;;;;;;5013681;28;20802;-78
2021/09/14 11:29:59;;;;;;;8.07;6.90;;;27.30;99.90;;;;;;5004383;28;20469;-78
2021/09/14 11:32:27;;;;;;;11.57;6.50;;;27.30;99.90;;;;;;5012649;28;20473;-78
2021/09/14 11:34:54;;;;;;;8.70;7.67;;;27.50;99.90;;;;;;5013380;28;20481;-79
2021/09/14 11:37:29;;;;;;;8.27;6.77;;;27.50;99.90;;;;;;5013212;28;20459;-79
2021/09/14 11:39:56;;;;;;;10.10;6.90;;;27.30;99.90;;;;;;5013168;28;20488;-79
2021/09/14 11:42:25;;;;;;;10.37;6.80;;;27.30;99.90;;;;;;5011753;28;20485;-79
2021/09/14 11:45:02;;;;;;;7.57;6.73;;;27.30;99.90;;;;;;4994593;28;20528;-78
2021/09/14 11:47:29;;;;;;;9.47;6.97;;;27.30;99.90;;;;;;4994029;28;20437;-79
2021/09/14 11:49:56;;;;;;;9.63;7.87;;;27.30;99.90;;;;;;4993186;28;20456;-79
2021/09/14 11:52:23;;;;;;;9.67;7.20;;;27.40;99.90;;;;;;4992711;28;20593;-78
2021/09/14 11:54:50;;;;;;;10.07;7.20;;;27.50;99.90;;;;;;5011539;28;20457;-78
2021/09/14 11:57:19;;;;;;;7.80;7.00;;;27.50;99.90;;;;;;5011674;28;20473;-77
2021/09/14 11:59:47;;;;;;;10.70;6.80;;;27.60;99.90;;;;;;5010925;28;20540;-77
2021/09/14 12:02:17;;;;;;;7.73;6.73;;;27.70;99.90;;;;;;5008800;28;20513;-78
2021/09/14 12:04:44;;;;;;;9.90;7.87;;;27.80;99.90;;;;;;5010985;28;20524;-77
2021/09/14 12:07:18;;;;;;;9.60;7.50;;;27.80;99.90;;;;;;5011137;28;20989;-78
2021/09/14 12:09:45;;;;;;;7.80;6.80;;;28.00;99.90;;;;;;5012101;28;20432;-78
2021/09/14 12:12:13;;;;;;;7.47;6.77;;;28.10;99.80;;;;;;5010310;28;20985;-78
2021/09/14 12:14:39;;;;;;;8.03;7.23;;;27.90;99.80;;;;;;5011677;28;20872;-78
2021/09/14 12:17:08;;;;;;;10.63;7.23;;;27.90;99.90;;;;;;4997997;28;20463;-77
2021/09/14 12:19:36;;;;;;;9.90;7.40;;;27.80;99.90;;;;;;5001179;28;20501;-77
2021/09/14 12:22:04;;;;;;;9.13;8.20;;;27.60;99.90;;;;;;4994084;28;20468;-78
2021/09/14 12:24:31;;;;;;;9.80;7.53;;;27.30;99.90;;;;;;5007648;28;20452;-79
2021/09/14 12:27:00;;;;;;;7.77;6.80;;;27.10;99.90;;;;;;5014608;28;20453;-78
2021/09/14 12:29:27;;;;;;;9.10;8.00;;;26.80;99.90;;;;;;5013011;28;20444;-78
2021/09/14 12:31:54;;;;;;;9.90;7.97;;;26.60;99.90;;;;;;5015748;28;20467;-78
2021/09/14 12:34:22;;;;;;;9.90;6.47;;;26.60;99.90;;;;;;5015025;28;20451;-78
2021/09/14 12:36:51;;;;;;;12.30;8.43;;;26.50;99.90;;;;;;5015730;28;20537;-79
2021/09/14 12:39:20;;;;;;;10.40;8.23;;;26.30;99.90;;;;;;5015303;28;20489;-78
2021/09/14 12:41:47;;;;;;;10.67;8.07;;;26.40;99.90;;;;;;5015197;28;20543;-78
2021/09/14 12:44:14;;;;;;;8.40;6.67;;;26.40;99.90;;;;;;5010446;28;20566;-78
2021/09/14 12:46:41;;;;;;;9.17;7.00;;;26.50;99.90;;;;;;5014376;28;20466;-78
2021/09/14 12:49:08;;;;;;;9.33;7.10;;;26.50;99.90;;;;;;5013838;28;20559;-78
2021/09/14 12:51:36;;;;;;;8.63;7.10;;;26.60;99.90;;;;;;5015296;28;20809;-77
2021/09/14 12:54:03;;;;;;;9.83;8.03;;;26.60;99.90;;;;;;5000756;28;20484;-78
2021/09/14 12:56:30;;;;;;;9.33;8.00;;;26.60;99.90;;;;;;4998221;28;20537;-78
2021/09/14 12:58:57;;;;;;;11.83;8.00;;;26.60;99.90;;;;;;5018903;28;20447;-78
2021/09/14 13:01:24;;;;;;;11.70;8.67;;;26.70;99.90;;;;;;5004229;28;20466;-78
2021/09/14 13:03:50;;;;;;;9.23;7.30;;;26.70;99.90;;;;;;4995869;28;20553;-78
2021/09/14 13:06:17;;;;;;;11.80;7.73;;;26.90;99.90;;;;;;5006779;28;20581;-78
2021/09/14 13:08:45;;;;;;;7.80;7.00;;;27.00;99.90;;;;;;5014504;28;20778;-78
2021/09/14 13:11:12;;;;;;;10.23;7.20;;;27.00;99.90;;;;;;4996677;28;20454;-78
2021/09/14 13:16:24;;;;;;;10.10;7.90;;;27.20;99.90;;;;;;5007392;28;20445;-79
2021/09/14 13:18:52;;;;;;;9.23;6.83;;;27.20;99.90;;;;;;5013801;28;20462;-80
2021/09/14 13:21:21;;;;;;;9.37;8.47;;;27.20;99.90;;;;;;5001795;28;20467;-79
2021/09/14 13:23:50;;;;;;;9.60;7.57;;;27.10;99.90;;;;;;5006602;28;20479;-80
2021/09/14 13:26:17;;;;;;;8.43;7.53;;;27.30;99.90;;;;;;4997283;28;20472;-78
2021/09/14 13:28:44;;;;;;;10.43;7.60;;;27.00;99.90;;;;;;5011352;28;20484;-79
2021/09/14 13:31:11;;;;;;;11.20;7.53;;;27.00;99.90;;;;;;4996776;28;20499;-77
2021/09/14 13:33:39;;;;;;;10.00;7.83;;;27.10;99.90;;;;;;5006890;28;20479;-78